Time;durP1;ratioP1;P1;durP2;ratioP2;P2;SDS_P1;SDS_P2;PMS_P1;PMS_P2;Temp;Humidity;BMP_temperature;BMP_pressure;BME280_temperature;BME280_humidity;BME280_pressure;Samples;Min_cycle;Max_cycle;Signal;HPM_P1;HPM_P2
2022/08/08 00:00:21;;;;;;;9.63;8.50;;;23.50;94.10;;;24.09;60.10;95021.16;5020399;28;20449;-60
2022/08/08 00:02:57;;;;;;;10.20;8.50;;;23.50;94.10;;;24.08;60.54;95016.84;5017413;28;20469;-60
2022/08/08 00:05:30;;;;;;;12.60;8.60;;;23.50;94.10;;;24.06;60.50;95013.53;5019975;28;20433;-59
2022/08/08 00:08:05;;;;;;;10.00;9.10;;;23.50;94.10;;;24.05;60.03;95015.41;5018012;28;20469;-60
2022/08/08 00:10:35;;;;;;;10.23;8.33;;;23.50;94.20;;;24.02;60.29;95013.16;5017718;28;20525;-60
2022/08/08 00:13:11;;;;;;;9.23;8.30;;;23.50;94.20;;;23.99;60.11;95019.78;5020157;28;20477;-60
2022/08/08 00:15:41;;;;;;;10.20;9.10;;;23.40;94.20;;;23.98;60.35;95017.31;5019400;28;20456;-61
2022/08/08 00:18:24;;;;;;;12.73;8.47;;;23.40;94.10;;;23.95;60.28;95023.97;5020316;28;20479;-61
2022/08/08 00:20:54;;;;;;;10.10;9.10;;;23.40;94.10;;;23.93;59.69;95025.22;5019468;28;20510;-59
2022/08/08 00:23:26;;;;;;;18.33;9.07;;;23.40;94.10;;;23.90;60.75;95021.09;5019939;28;20461;-59
2022/08/08 00:25:57;;;;;;;11.13;9.23;;;23.30;94.30;;;23.87;60.21;95026.09;5021351;28;20444;-59
2022/08/08 00:28:28;;;;;;;9.80;8.80;;;23.30;94.30;;;23.84;59.88;95023.81;5021157;28;20544;-60
2022/08/08 00:30:55;;;;;;;8.53;7.80;;;23.30;94.30;;;23.80;60.16;95031.50;5019292;28;20522;-59
2022/08/08 00:33:26;;;;;;;11.60;9.47;;;23.20;94.30;;;23.77;60.61;95037.31;5018504;28;20472;-60
2022/08/08 00:35:59;;;;;;;11.07;9.97;;;23.20;94.50;;;23.74;60.42;95029.69;5019150;28;20445;-60
2022/08/08 00:38:44;;;;;;;14.63;8.47;;;23.20;94.50;;;23.70;60.47;95034.69;5017750;28;20441;-59
2022/08/08 00:42:21;;;;;;;15.00;9.60;;;23.10;94.70;;;23.68;61.27;95039.44;5022274;28;20472;-60
2022/08/08 00:45:02;;;;;;;15.93;9.30;;;23.10;94.80;;;23.63;60.41;95033.91;4971899;28;20484;-60
2022/08/08 00:48:36;;;;;;;10.30;9.40;;;23.10;94.50;;;23.58;61.28;95028.38;4980593;28;20474;-59
2022/08/08 00:52:05;;;;;;;14.43;9.80;;;23.00;94.80;;;23.51;61.35;95030.28;5020842;28;20518;-60
2022/08/08 00:55:20;;;;;;;11.40;10.20;;;23.00;94.80;;;23.45;61.15;95026.56;5021195;28;20876;-60
2022/08/08 00:58:42;;;;;;;15.80;10.93;;;22.90;94.80;;;23.43;60.54;95028.66;5024295;28;20833;-61
2022/08/08 01:01:14;;;;;;;12.23;10.20;;;22.90;94.80;;;23.40;60.91;95031.78;4991882;28;21013;-59
2022/08/08 01:04:32;;;;;;;12.83;11.30;;;22.90;94.70;;;23.38;61.35;95034.69;5022521;28;20883;-61
2022/08/08 01:07:49;;;;;;;14.67;10.63;;;22.80;94.80;;;23.36;60.70;95028.72;5022346;28;20530;-60
2022/08/08 01:11:05;;;;;;;15.33;11.70;;;22.80;94.90;;;23.33;61.19;95026.47;5021442;28;21110;-61
2022/08/08 01:14:05;;;;;;;17.77;13.87;;;22.80;94.80;;;23.29;61.00;95035.97;5023297;28;20452;-61
2022/08/08 01:16:54;;;;;;;19.33;14.13;;;22.80;95.00;;;23.25;61.54;95029.38;5021229;28;20896;-60
2022/08/08 01:20:15;;;;;;;20.10;14.73;;;22.70;94.90;;;23.20;61.15;95040.75;5022232;28;20888;-60
2022/08/08 01:23:29;;;;;;;11.77;10.67;;;22.70;95.20;;;23.10;61.21;95037.72;5017915;28;20629;-61
2022/08/08 01:26:29;;;;;;;13.60;12.13;;;22.60;95.10;;;23.00;62.09;95031.97;5005027;28;20479;-62
2022/08/08 01:29:32;;;;;;;17.00;12.47;;;22.50;95.40;;;22.94;62.42;95044.34;5004972;28;20957;-63
2022/08/08 01:33:00;;;;;;;15.33;13.37;;;22.50;95.70;;;22.89;62.23;95053.03;5020241;28;21010;-60
2022/08/08 01:36:00;;;;;;;21.00;13.60;;;22.40;96.10;;;22.86;62.26;95049.97;4978930;28;21013;-60
2022/08/08 01:38:54;;;;;;;17.27;13.40;;;22.30;95.70;;;22.81;62.30;95042.56;5020282;28;20481;-60
2022/08/08 01:41:29;;;;;;;23.67;15.10;;;22.30;95.70;;;22.76;61.69;95046.91;5020586;28;20473;-61
2022/08/08 01:44:02;;;;;;;16.30;13.87;;;22.20;95.80;;;22.73;62.51;95054.34;5022536;28;20453;-60
2022/08/08 01:46:45;;;;;;;18.67;12.50;;;22.20;96.00;;;22.71;62.41;95048.38;5020016;28;20543;-59
2022/08/08 01:49:18;;;;;;;12.87;11.63;;;22.20;96.20;;;22.66;62.48;95052.72;5023382;28;21041;-59
2022/08/08 01:52:00;;;;;;;12.90;11.53;;;22.10;96.00;;;22.59;62.37;95058.09;5019731;28;20571;-61
2022/08/08 01:54:52;;;;;;;14.50;11.40;;;22.10;96.10;;;22.56;62.98;95048.59;5022650;28;20594;-60
2022/08/08 01:57:27;;;;;;;13.30;11.40;;;22.00;96.40;;;22.52;62.61;95057.28;5022980;28;20916;-61
2022/08/08 02:00:09;;;;;;;13.50;11.80;;;22.00;96.40;;;22.51;63.07;95061.81;5020548;28;20448;-59
2022/08/08 02:02:53;;;;;;;16.60;10.13;;;22.00;96.60;;;22.49;63.22;95053.16;5023201;28;20476;-59
2022/08/08 02:05:35;;;;;;;13.67;10.70;;;22.00;96.70;;;22.49;63.36;95060.38;5021333;28;20796;-59
2022/08/08 02:08:10;;;;;;;13.77;10.80;;;22.00;97.00;;;22.49;63.38;95063.06;5022920;28;20522;-60
2022/08/08 02:10:53;;;;;;;19.00;11.37;;;22.00;96.90;;;22.49;63.48;95063.06;5019188;28;20473;-60
2022/08/08 02:13:24;;;;;;;14.27;10.23;;;22.00;97.00;;;22.47;62.68;95063.28;5020261;28;20500;-61
2022/08/08 02:15:57;;;;;;;11.77;9.80;;;22.00;96.90;;;22.47;63.08;95065.94;5022260;28;20511;-60
2022/08/08 02:18:30;;;;;;;18.60;10.97;;;22.00;97.00;;;22.48;63.40;95064.94;5023689;28;20971;-60
2022/08/08 02:23:48;;;;;;;27.07;11.73;;;22.00;97.10;;;22.49;63.75;95065.75;5019400;28;20484;-60
2022/08/08 02:26:17;;;;;;;14.27;10.13;;;22.00;97.50;;;22.46;63.08;95064.28;5023804;28;20535;-60
2022/08/08 02:29:11;;;;;;;11.97;10.60;;;22.00;97.10;;;22.43;63.86;95062.03;5020039;28;20457;-60
2022/08/08 02:31:56;;;;;;;11.97;10.70;;;21.90;97.30;;;22.43;63.72;95064.72;5019174;28;20574;-60
2022/08/08 02:34:38;;;;;;;13.13;10.03;;;21.90;97.50;;;22.40;63.73;95067.81;5022312;28;20988;-61
2022/08/08 02:37:12;;;;;;;10.37;9.27;;;21.90;97.40;;;22.38;63.63;95072.56;5020087;28;21186;-60
2022/08/08 02:39:58;;;;;;;13.77;9.80;;;21.90;97.50;;;22.37;64.61;95073.63;5020319;28;20527;-60
2022/08/08 02:42:54;;;;;;;11.17;9.30;;;21.90;97.80;;;22.36;64.21;95075.44;5022185;28;21015;-60
2022/08/08 02:45:51;;;;;;;9.93;8.93;;;21.80;97.80;;;22.33;64.25;95075.88;5019761;28;20996;-60
2022/08/08 02:48:47;;;;;;;12.07;10.27;;;21.80;97.80;;;22.34;64.04;95076.72;5021109;28;20500;-60
2022/08/08 02:52:15;;;;;;;10.73;9.63;;;21.80;97.80;;;22.33;64.77;95080.41;5018541;28;20493;-61
2022/08/08 02:54:59;;;;;;;16.83;11.77;;;21.80;98.00;;;22.32;63.73;95073.41;5016640;28;20452;-62
2022/08/08 02:58:18;;;;;;;20.43;11.53;;;21.80;97.50;;;22.29;64.44;95076.47;5019527;28;21118;-60
2022/08/08 03:01:37;;;;;;;12.10;10.87;;;21.80;97.90;;;22.23;64.14;95070.09;5019193;28;20555;-59
2022/08/08 03:04:51;;;;;;;18.00;11.03;;;21.70;97.50;;;22.19;64.48;95083.06;5016034;28;20503;-61
2022/08/08 03:08:22;;;;;;;17.80;10.80;;;21.70;97.70;;;22.17;64.18;95077.09;5018808;28;20481;-61
2022/08/08 03:12:00;;;;;;;12.00;10.90;;;21.70;97.80;;;22.14;64.65;95082.88;5016786;28;20819;-60
2022/08/08 03:14:47;;;;;;;11.80;10.43;;;21.70;98.10;;;22.12;64.20;95094.81;4971126;28;20444;-62
2022/08/08 03:17:23;;;;;;;10.83;9.80;;;21.60;97.80;;;22.09;64.51;95089.88;5019262;28;20982;-59
2022/08/08 03:20:04;;;;;;;11.63;10.40;;;21.60;98.00;;;22.10;64.53;95088.84;5020655;28;20532;-60
2022/08/08 03:22:30;;;;;;;11.27;10.20;;;21.60;98.20;;;22.08;64.43;95083.69;5019954;28;20553;-59
2022/08/08 03:25:00;;;;;;;16.17;10.50;;;21.60;98.10;;;22.07;64.32;95084.72;5021302;28;21003;-60
2022/08/08 03:27:34;;;;;;;15.33;9.97;;;21.60;98.20;;;22.07;64.48;95092.75;5020745;28;20488;-59
2022/08/08 03:30:06;;;;;;;12.30;11.10;;;21.60;98.10;;;22.07;64.56;95095.44;5019790;28;20449;-62
2022/08/08 03:35:19;;;;;;;19.37;11.43;;;21.60;98.20;;;22.10;64.57;95100.38;5017502;28;20973;-61
2022/08/08 03:37:46;;;;;;;16.30;11.30;;;21.60;98.30;;;22.13;64.16;95102.63;5020928;28;20477;-60
2022/08/08 03:40:16;;;;;;;14.40;10.50;;;21.60;98.30;;;22.18;64.89;95100.19;5019190;28;20461;-60
2022/08/08 03:42:43;;;;;;;12.03;10.73;;;21.70;98.60;;;22.22;64.78;95103.28;5019786;28;21032;-61
2022/08/08 03:45:17;;;;;;;13.73;11.03;;;21.70;98.50;;;22.24;64.40;95103.88;5018685;28;20458;-60
2022/08/08 03:47:44;;;;;;;19.63;11.13;;;21.70;98.40;;;22.26;64.49;95101.84;5021549;28;20556;-60
2022/08/08 03:50:18;;;;;;;14.03;10.73;;;21.70;98.30;;;22.29;64.36;95116.66;5019030;28;20958;-61
2022/08/08 03:52:45;;;;;;;12.60;10.27;;;21.80;98.20;;;22.29;64.02;95109.47;5022068;28;20476;-61
2022/08/08 03:55:15;;;;;;;12.90;10.83;;;21.70;98.00;;;22.32;64.07;95110.91;5023231;28;20506;-61
2022/08/08 03:57:46;;;;;;;17.03;11.00;;;21.80;98.00;;;22.34;64.17;95115.03;5023127;28;20550;-59
2022/08/08 04:03:21;;;;;;;16.30;10.40;;;21.80;97.90;;;22.40;63.50;95112.56;5019924;28;20519;-58
2022/08/08 04:05:48;;;;;;;16.57;11.60;;;21.90;97.90;;;22.39;63.47;95111.75;5021730;28;20526;-59
2022/08/08 04:08:19;;;;;;;15.20;10.90;;;21.90;97.80;;;22.37;63.42;95108.47;5019155;28;20448;-60
2022/08/08 04:10:51;;;;;;;17.63;12.70;;;21.90;97.80;;;22.37;63.74;95113.81;5018138;28;20551;-60
2022/08/08 04:13:19;;;;;;;14.17;12.37;;;21.90;97.80;;;22.35;63.59;95115.84;5019285;28;20457;-59
2022/08/08 04:15:46;;;;;;;18.67;14.03;;;21.80;97.70;;;22.32;63.54;95116.28;5018655;28;20458;-59
2022/08/08 04:18:14;;;;;;;31.60;18.37;;;21.80;97.70;;;22.34;64.25;95124.94;5020424;28;21107;-61
2022/08/08 04:20:41;;;;;;;30.50;17.13;;;21.80;97.90;;;22.41;63.91;95119.56;5017363;28;21036;-60
2022/08/08 04:23:09;;;;;;;27.33;15.47;;;21.90;98.30;;;22.49;63.12;95125.53;5021274;28;20484;-59
2022/08/08 04:25:36;;;;;;;17.47;13.27;;;22.00;97.60;;;22.54;63.23;95124.91;5021302;28;20449;-59
2022/08/08 04:28:05;;;;;;;19.50;11.50;;;22.00;97.30;;;22.55;62.82;95121.19;5019462;28;20489;-60
2022/08/08 04:30:32;;;;;;;11.83;8.90;;;22.00;97.10;;;22.58;62.76;95126.16;5017694;28;20450;-60
2022/08/08 04:32:59;;;;;;;11.10;9.83;;;22.00;96.90;;;22.60;62.45;95126.75;5021756;28;20484;-61
2022/08/08 04:35:27;;;;;;;14.17;9.77;;;22.00;97.00;;;22.59;61.94;95125.13;5017220;28;20507;-60
2022/08/08 04:37:54;;;;;;;11.90;9.87;;;22.10;96.40;;;22.58;61.97;95128.00;5018861;28;20531;-60
2022/08/08 04:40:22;;;;;;;9.87;8.90;;;22.10;96.30;;;22.57;61.97;95129.84;5018474;28;20461;-61
2022/08/08 04:42:50;;;;;;;12.43;9.10;;;22.00;96.30;;;22.54;61.79;95136.47;5019033;28;20550;-59
2022/08/08 04:45:18;;;;;;;13.60;9.30;;;22.00;96.20;;;22.51;61.33;95136.88;5017652;28;20503;-60
2022/08/08 04:47:46;;;;;;;12.07;9.93;;;22.00;96.10;;;22.45;61.62;95137.72;5018244;28;20489;-59
2022/08/08 04:50:13;;;;;;;11.50;10.40;;;22.00;96.10;;;22.44;61.33;95146.78;5019610;28;20523;-59
2022/08/08 04:52:40;;;;;;;15.97;10.93;;;22.00;96.10;;;22.42;62.01;95138.13;5021561;28;20988;-58
2022/08/08 04:55:08;;;;;;;9.90;8.90;;;21.90;96.20;;;22.37;61.54;95146.78;5016103;28;20937;-59
2022/08/08 04:57:36;;;;;;;12.90;9.37;;;21.90;96.30;;;22.34;61.56;95143.72;5021512;28;20473;-57
2022/08/08 05:00:06;;;;;;;16.17;9.97;;;21.90;96.40;;;22.32;61.76;95151.97;5017922;28;20475;-60
2022/08/08 05:02:35;;;;;;;15.30;8.80;;;21.80;96.40;;;22.34;61.66;95151.75;5014755;28;20844;-59
2022/08/08 05:05:02;;;;;;;13.00;8.80;;;21.80;96.40;;;22.36;62.16;95150.50;5015512;28;20449;-59
2022/08/08 05:07:29;;;;;;;17.27;8.23;;;21.80;96.50;;;22.37;62.21;95151.34;5016853;28;20472;-59
2022/08/08 05:09:57;;;;;;;12.13;10.93;;;21.90;96.60;;;22.40;61.70;95158.94;5017849;28;20886;-60
2022/08/08 05:12:24;;;;;;;11.13;9.70;;;21.90;96.60;;;22.45;62.20;95155.63;5015894;28;20497;-60
2022/08/08 05:14:51;;;;;;;12.30;9.83;;;21.90;96.50;;;22.49;62.34;95148.84;5019573;28;20457;-60
2022/08/08 05:17:18;;;;;;;20.73;11.57;;;21.90;96.60;;;22.54;61.91;95151.72;5017765;28;20911;-59
2022/08/08 05:19:47;;;;;;;11.37;10.17;;;22.00;96.70;;;22.59;61.82;95149.25;5016788;28;20453;-59
2022/08/08 05:22:14;;;;;;;12.63;10.97;;;22.00;96.60;;;22.63;62.15;95155.84;5016752;28;20531;-59
2022/08/08 05:24:42;;;;;;;11.57;10.00;;;22.10;96.70;;;22.68;61.61;95157.88;5020244;28;20456;-60
2022/08/08 05:27:09;;;;;;;15.67;9.83;;;22.10;96.50;;;22.73;61.78;95152.75;5017504;28;20608;-58
2022/08/08 05:29:36;;;;;;;9.03;8.10;;;22.20;96.50;;;22.83;61.65;95155.81;5022951;28;20495;-60
2022/08/08 05:32:04;;;;;;;22.73;8.37;;;22.30;96.50;;;22.96;61.28;95154.13;5019251;28;20501;-60
2022/08/08 05:34:35;;;;;;;13.17;8.63;;;22.40;96.60;;;23.08;61.55;95153.31;5025297;28;20532;-61
2022/08/08 05:37:05;;;;;;;11.97;8.33;;;22.50;96.40;;;23.22;61.08;95143.38;5021438;28;21077;-59
2022/08/08 05:39:32;;;;;;;14.97;9.13;;;22.60;96.20;;;23.38;60.69;95152.78;5023337;28;20540;-59
2022/08/08 05:42:00;;;;;;;9.67;8.67;;;22.80;96.20;;;23.55;60.96;95153.13;5020968;28;20547;-59
2022/08/08 05:44:29;;;;;;;14.03;8.70;;;23.00;96.00;;;23.75;60.57;95157.56;5002315;28;20965;-60
2022/08/08 05:46:57;;;;;;;10.47;8.77;;;23.10;95.80;;;23.96;59.86;95153.75;5001847;28;20936;-59
2022/08/08 05:49:25;;;;;;;12.00;8.37;;;23.30;95.50;;;24.15;60.05;95160.03;5002941;28;20528;-59
2022/08/08 05:51:52;;;;;;;10.10;7.97;;;23.50;95.40;;;24.32;59.67;95166.53;5000090;28;20600;-59
2022/08/08 05:54:21;;;;;;;10.63;8.17;;;23.60;95.10;;;24.49;58.79;95163.28;5005690;28;20450;-59
2022/08/08 05:56:48;;;;;;;12.80;8.20;;;23.80;94.80;;;24.65;58.33;95162.78;5003075;28;20557;-60
2022/08/08 05:59:18;;;;;;;29.90;9.97;;;24.00;94.60;;;24.85;57.97;95161.78;5004357;28;20453;-59
2022/08/08 06:01:54;;;;;;;9.37;8.47;;;24.20;94.30;;;25.07;57.43;95159.47;5000905;28;20524;-60
2022/08/08 06:04:23;;;;;;;9.07;8.27;;;24.40;93.90;;;25.29;57.43;95159.88;4997827;28;20445;-60
2022/08/08 06:06:52;;;;;;;11.20;8.00;;;24.60;93.70;;;25.43;57.15;95157.84;5002791;28;20523;-59
2022/08/08 06:09:23;;;;;;;10.93;7.43;;;24.70;93.10;;;25.54;56.39;95158.97;4999316;28;20457;-59
2022/08/08 06:11:52;;;;;;;11.87;8.00;;;24.80;92.60;;;25.59;56.12;95157.25;5003260;28;20546;-60
2022/08/08 06:14:19;;;;;;;16.60;8.73;;;24.90;92.30;;;25.68;55.92;95163.13;5001377;28;20485;-58
2022/08/08 06:16:46;;;;;;;12.33;8.77;;;25.00;92.10;;;25.84;55.83;95158.16;5000123;28;20465;-58
2022/08/08 06:19:14;;;;;;;14.50;8.13;;;25.10;92.00;;;26.00;55.32;95157.56;5001209;28;20458;-59
2022/08/08 06:21:42;;;;;;;9.80;8.70;;;25.30;91.90;;;26.18;55.50;95170.16;5001413;28;20466;-59
2022/08/08 06:24:09;;;;;;;8.23;7.43;;;25.50;91.60;;;26.37;55.12;95162.81;4999664;28;20453;-60
2022/08/08 06:26:41;;;;;;;9.00;8.23;;;25.60;91.30;;;26.58;54.74;95166.00;4999658;28;20486;-61
2022/08/08 06:29:09;;;;;;;9.63;8.60;;;25.80;90.90;;;26.77;54.15;95172.97;5002398;28;20453;-59
2022/08/08 06:31:37;;;;;;;13.17;8.13;;;26.00;90.70;;;26.99;54.08;95169.69;5001072;28;20501;-58
2022/08/08 06:34:09;;;;;;;11.13;8.40;;;26.30;90.40;;;27.20;53.37;95176.34;4999754;28;20469;-59
2022/08/08 06:36:38;;;;;;;19.83;8.00;;;26.50;90.10;;;27.40;53.23;95172.50;5000212;28;20466;-59
2022/08/08 06:39:08;;;;;;;7.93;7.13;;;26.70;89.00;;;27.57;52.72;95178.78;5002676;28;20460;-58
2022/08/08 06:41:41;;;;;;;9.13;8.23;;;26.80;88.10;;;27.76;52.02;95174.00;4999415;28;20830;-60
2022/08/08 06:44:08;;;;;;;12.23;7.50;;;27.00;87.30;;;27.95;51.78;95169.28;5001626;28;20446;-59
2022/08/08 06:46:36;;;;;;;8.80;7.90;;;27.20;86.70;;;28.17;51.74;95174.81;4999999;28;20477;-61
2022/08/08 06:49:03;;;;;;;8.77;7.87;;;27.40;85.80;;;28.37;51.07;95173.56;5000166;28;20830;-59
2022/08/08 06:51:31;;;;;;;8.10;7.30;;;27.60;84.90;;;28.58;51.22;95185.53;4999761;28;20536;-61
2022/08/08 06:53:58;;;;;;;9.53;7.60;;;27.80;83.90;;;28.77;50.93;95180.75;5004269;28;20477;-59
2022/08/08 06:56:26;;;;;;;13.50;7.60;;;28.00;83.00;;;28.97;50.38;95183.75;4999901;28;20557;-60
2022/08/08 06:58:54;;;;;;;8.57;7.87;;;28.20;81.50;;;29.12;49.98;95180.44;5005080;28;20492;-58
2022/08/08 07:01:22;;;;;;;7.67;7.00;;;28.30;80.50;;;29.24;48.88;95177.66;4999570;28;20545;-60
2022/08/08 07:03:53;;;;;;;7.80;7.20;;;28.50;79.60;;;29.38;48.34;95177.31;4996897;28;20450;-58
2022/08/08 07:06:23;;;;;;;8.00;7.30;;;28.60;78.20;;;29.52;48.69;95183.97;5003299;28;20474;-60
2022/08/08 07:08:53;;;;;;;8.10;7.43;;;28.80;77.60;;;29.65;47.89;95177.34;5001763;28;20441;-59
2022/08/08 07:11:21;;;;;;;13.50;6.83;;;28.90;77.20;;;29.82;48.02;95188.16;4998986;28;20477;-60
2022/08/08 07:13:52;;;;;;;11.90;7.20;;;29.00;76.10;;;29.98;48.08;95181.84;5001429;28;20522;-60
2022/08/08 07:16:24;;;;;;;7.20;6.50;;;29.20;75.30;;;30.18;46.94;95183.16;5002165;28;20499;-61
2022/08/08 07:19:11;;;;;;;9.40;6.80;;;29.40;74.70;;;30.37;46.75;95178.16;4998416;28;20454;-60
2022/08/08 07:21:42;;;;;;;10.50;8.67;;;29.60;73.10;;;30.56;47.15;95181.34;5000718;28;20222;-60
2022/08/08 07:24:13;;;;;;;7.23;6.60;;;29.70;72.90;;;30.66;45.99;95178.72;4999199;28;20452;-60
2022/08/08 07:26:41;;;;;;;7.13;6.00;;;29.90;71.40;;;30.69;45.84;95175.50;5004359;28;20572;-60
2022/08/08 07:29:08;;;;;;;13.33;7.20;;;29.90;70.00;;;30.79;45.47;95184.81;5000268;28;20280;-60
2022/08/08 07:31:37;;;;;;;9.73;8.13;;;30.00;69.20;;;30.90;45.70;95183.78;5001654;28;20610;-59
2022/08/08 07:34:05;;;;;;;9.40;7.33;;;30.10;69.30;;;31.01;45.08;95182.81;5001194;28;20588;-58
2022/08/08 07:36:33;;;;;;;7.63;6.93;;;30.20;67.00;;;31.17;44.41;95174.75;5000078;28;20835;-59
2022/08/08 07:39:00;;;;;;;8.80;7.30;;;30.30;67.00;;;31.34;44.45;95180.03;5001960;28;20221;-59
2022/08/08 07:41:27;;;;;;;10.33;7.10;;;30.50;66.40;;;31.54;44.33;95179.34;5000943;28;20230;-61
2022/08/08 07:43:55;;;;;;;6.83;6.23;;;30.70;66.50;;;31.71;43.84;95177.22;4999440;28;20254;-60
2022/08/08 07:46:22;;;;;;;9.13;5.90;;;30.90;65.90;;;31.78;43.58;95177.00;4999005;28;20241;-59
2022/08/08 07:48:51;;;;;;;7.40;6.53;;;31.00;64.60;;;31.88;43.41;95176.22;4998873;28;20541;-60
2022/08/08 07:51:18;;;;;;;6.20;5.67;;;31.10;63.80;;;32.03;42.63;95165.38;4999240;28;20714;-60
2022/08/08 07:53:49;;;;;;;7.40;6.17;;;31.20;63.30;;;32.18;42.13;95170.06;5003632;28;20230;-59
2022/08/08 07:56:17;;;;;;;9.77;5.90;;;31.40;61.70;;;32.38;41.40;95161.13;4999103;28;20922;-59
2022/08/08 07:58:45;;;;;;;8.53;5.70;;;31.50;59.60;;;32.55;41.28;95174.47;5000278;28;20856;-60
2022/08/08 08:01:14;;;;;;;9.60;6.27;;;31.70;59.70;;;32.62;40.62;95166.84;4998275;28;20238;-59
2022/08/08 08:03:51;;;;;;;9.97;6.47;;;31.80;59.30;;;32.67;40.64;95160.59;4999545;28;20586;-60
2022/08/08 08:06:19;;;;;;;7.90;5.67;;;31.90;59.00;;;32.73;40.77;95162.25;5001756;28;20276;-59
2022/08/08 08:08:49;;;;;;;6.93;6.00;;;31.90;58.60;;;32.89;40.07;95163.06;5000742;28;20272;-59
2022/08/08 08:11:20;;;;;;;7.00;5.93;;;32.00;58.20;;;33.04;39.80;95162.22;4999580;28;20241;-59
2022/08/08 08:13:54;;;;;;;8.07;6.10;;;32.20;57.20;;;33.10;39.61;95169.28;4997910;28;20750;-59
2022/08/08 08:16:23;;;;;;;8.73;6.28;;;32.30;56.70;;;33.18;39.42;95160.56;5002532;28;20306;-58
2022/08/08 08:18:56;;;;;;;8.43;6.05;;;32.40;56.60;;;33.35;38.83;95156.72;4997811;28;20207;-59
2022/08/08 08:21:25;;;;;;;13.05;6.70;;;32.50;56.10;;;33.53;39.04;95156.13;5000453;28;20226;-59
2022/08/08 08:23:52;;;;;;;10.75;5.70;;;32.70;55.80;;;33.66;38.69;95157.41;4998522;28;20210;-59
2022/08/08 08:26:20;;;;;;;10.93;6.60;;;32.80;55.00;;;33.77;38.28;95158.22;5002965;28;20664;-60
2022/08/08 08:28:48;;;;;;;6.88;5.53;;;32.90;54.50;;;33.87;38.34;95152.72;4999072;28;20662;-60
2022/08/08 08:31:15;;;;;;;7.63;5.78;;;33.10;54.00;;;33.95;38.21;95154.06;5000127;28;20228;-60
2022/08/08 08:33:42;;;;;;;15.93;7.03;;;33.10;53.90;;;33.97;37.36;95146.38;4996762;28;20315;-59
2022/08/08 08:36:11;;;;;;;12.85;5.55;;;33.20;52.30;;;34.10;37.00;95147.72;5001215;28;20230;-58
2022/08/08 08:38:39;;;;;;;9.52;5.75;;;33.30;52.90;;;34.16;36.73;95145.75;4997944;28;20644;-59
2022/08/08 08:41:07;;;;;;;13.68;4.75;;;33.30;52.80;;;34.17;36.98;95142.72;4998413;28;20303;-62
2022/08/08 08:43:35;;;;;;;13.38;5.78;;;33.40;52.30;;;34.25;36.91;95136.69;4998331;28;20216;-59
2022/08/08 08:46:02;;;;;;;10.95;5.85;;;33.40;51.90;;;34.37;36.46;95143.72;5001615;28;20208;-59
2022/08/08 08:48:30;;;;;;;6.82;5.97;;;33.50;51.90;;;34.52;36.53;95131.84;4994278;28;20211;-59
2022/08/08 08:50:57;;;;;;;8.43;5.47;;;33.70;51.70;;;34.71;36.59;95141.00;5001223;28;20208;-59
2022/08/08 08:53:25;;;;;;;10.57;5.07;;;33.80;51.60;;;34.89;35.64;95138.66;5001799;28;20230;-59
2022/08/08 08:55:54;;;;;;;7.82;4.75;;;34.00;50.50;;;35.06;34.81;95130.03;5000214;28;20302;-59
2022/08/08 08:58:25;;;;;;;8.50;5.05;;;34.20;48.90;;;35.17;33.14;95129.66;4999603;28;20221;-59
2022/08/08 09:00:53;;;;;;;5.93;4.43;;;34.30;47.30;;;35.23;34.87;95135.88;5002132;28;20202;-59
2022/08/08 09:03:20;;;;;;;4.72;4.43;;;34.40;48.80;;;35.28;35.08;95127.66;4996113;28;20206;-59
2022/08/08 09:05:47;;;;;;;9.43;4.22;;;34.50;48.80;;;35.34;34.35;95136.63;5003385;28;20202;-60
2022/08/08 09:08:15;;;;;;;4.53;4.18;;;34.50;47.90;;;35.28;33.45;95124.91;5005301;28;20210;-60
2022/08/08 09:10:44;;;;;;;7.50;3.90;;;34.50;46.40;;;35.26;32.90;95123.56;5000918;28;20663;-59
2022/08/08 09:13:11;;;;;;;6.13;3.97;;;34.50;46.30;;;35.23;32.30;95119.47;5003670;28;20249;-59
2022/08/08 09:15:39;;;;;;;5.85;4.03;;;34.50;46.00;;;35.25;33.18;95120.00;5001989;28;20215;-59
2022/08/08 09:18:06;;;;;;;6.90;3.88;;;34.50;46.00;;;35.19;31.77;95111.03;5002166;28;20313;-60
2022/08/08 09:20:34;;;;;;;6.85;3.50;;;34.50;45.10;;;35.14;32.32;95115.75;4998330;28;20253;-58
2022/08/08 09:23:01;;;;;;;10.80;3.60;;;34.40;44.40;;;35.16;31.49;95103.41;5003775;28;20289;-60
2022/08/08 09:25:29;;;;;;;5.15;4.18;;;34.40;44.40;;;35.28;32.35;95103.03;4999928;28;20212;-59
2022/08/08 09:27:58;;;;;;;8.38;3.88;;;34.50;44.60;;;35.44;31.72;95091.91;5004373;28;20285;-60
2022/08/08 09:30:26;;;;;;;8.57;4.07;;;34.60;44.40;;;35.55;31.49;95098.88;5001582;28;20662;-61
2022/08/08 09:32:54;;;;;;;7.82;3.22;;;34.70;44.50;;;35.64;30.22;95099.84;5003231;28;20739;-59
2022/08/08 09:35:24;;;;;;;4.93;3.38;;;34.80;42.40;;;35.62;30.31;95091.13;5001771;28;20314;-58
2022/08/08 09:37:53;;;;;;;6.82;4.10;;;34.80;42.20;;;35.56;30.21;95095.03;5003714;28;20803;-59
2022/08/08 09:40:22;;;;;;;4.57;3.53;;;34.80;42.30;;;35.36;30.91;95088.72;5000587;28;20229;-59
2022/08/08 09:42:51;;;;;;;5.55;3.03;;;34.60;42.20;;;35.21;30.24;95086.13;5005196;28;20544;-59
2022/08/08 09:45:21;;;;;;;7.72;3.58;;;34.50;42.20;;;35.14;30.15;95070.06;5001285;28;20203;-59
2022/08/08 09:47:49;;;;;;;6.72;3.05;;;34.40;42.10;;;35.10;30.66;95070.94;5004596;28;20222;-59
2022/08/08 09:50:18;;;;;;;7.18;3.90;;;34.40;42.10;;;35.07;30.82;95071.53;5001339;28;20231;-60
2022/08/08 09:52:48;;;;;;;6.50;3.45;;;34.30;42.00;;;35.07;29.88;95069.59;5004763;28;20230;-60
2022/08/08 09:55:16;;;;;;;5.38;3.30;;;34.30;41.40;;;35.07;30.23;95068.78;5002129;28;20293;-59
2022/08/08 09:57:47;;;;;;;12.20;3.15;;;34.30;41.10;;;34.97;29.10;95056.88;5004241;28;20226;-60
2022/08/08 10:00:16;;;;;;;5.88;3.55;;;34.20;40.00;;;34.96;28.60;95063.41;5001338;28;20198;-58
2022/08/08 10:02:46;;;;;;;2.75;2.47;;;34.20;40.20;;;34.97;28.98;95059.59;5001715;28;20230;-59
2022/08/08 10:05:16;;;;;;;5.93;2.92;;;34.20;40.10;;;34.97;29.76;95056.06;5003793;28;20810;-59
2022/08/08 10:07:56;;;;;;;4.03;2.17;;;34.20;41.00;;;34.98;28.43;95057.66;5002144;28;20219;-60
2022/08/08 10:10:26;;;;;;;10.48;3.45;;;34.20;39.50;;;35.05;27.71;95043.66;5003124;28;20259;-59
2022/08/08 10:12:54;;;;;;;5.95;2.10;;;34.20;38.10;;;35.08;26.88;95048.56;5002102;28;20288;-60
2022/08/08 10:15:22;;;;;;;9.48;2.28;;;34.30;37.60;;;35.10;28.15;95043.59;5002055;28;20213;-60
2022/08/08 10:17:52;;;;;;;10.88;2.30;;;34.30;39.20;;;34.99;27.69;95040.97;4999827;28;20288;-59
2022/08/08 10:20:20;;;;;;;2.00;1.90;;;34.20;36.70;;;34.78;27.86;95034.09;5001586;28;20202;-60
2022/08/08 10:22:54;;;;;;;4.80;2.42;;;34.10;38.20;;;34.63;27.68;95037.78;5002483;28;20230;-59
2022/08/08 10:25:21;;;;;;;5.28;2.20;;;33.90;38.80;;;34.51;27.54;95040.09;5000542;28;20291;-60
2022/08/08 10:27:52;;;;;;;5.15;2.40;;;33.80;37.20;;;34.33;27.22;95034.22;5003442;28;20227;-61
2022/08/08 10:30:20;;;;;;;2.67;2.47;;;33.60;37.20;;;34.23;28.57;95035.09;4998012;28;20202;-60
2022/08/08 10:32:53;;;;;;;4.95;2.03;;;33.50;38.50;;;34.10;27.99;95033.84;5001941;28;20226;-60
2022/08/08 10:35:22;;;;;;;7.28;2.30;;;33.40;38.40;;;33.99;27.89;95035.03;4999312;28;20285;-60
2022/08/08 10:37:55;;;;;;;3.05;2.42;;;33.30;38.00;;;33.97;27.64;95026.31;5003274;28;20226;-61
2022/08/08 10:40:23;;;;;;;3.42;2.40;;;33.20;38.00;;;34.03;28.99;95024.34;4999490;28;20198;-62
2022/08/08 10:42:55;;;;;;;13.10;2.30;;;33.20;39.60;;;34.05;28.11;95017.53;5002216;28;20218;-61
2022/08/08 10:45:22;;;;;;;2.85;2.63;;;33.30;39.10;;;33.93;26.81;95017.88;5001079;28;20206;-59
2022/08/08 10:47:55;;;;;;;4.30;2.28;;;33.20;37.00;;;33.71;27.83;95034.69;4999231;28;20726;-60
2022/08/08 10:50:31;;;;;;;3.40;2.20;;;33.00;37.60;;;33.53;28.71;95016.22;5000705;28;20802;-60
2022/08/08 10:53:02;;;;;;;4.60;3.00;;;32.90;39.30;;;33.49;28.74;95018.66;5000210;28;20236;-60